createdAt,value
2019-01-16T13:21:41.676Z,2.00
2019-01-16T13:23:55.698Z,2.00
2019-01-16T13:26:03.418Z,2.00
2019-01-16T13:28:10.805Z,2.00
2019-01-16T13:30:42.700Z,12.00
2019-01-16T13:32:56.316Z,15.00
2019-01-16T13:35:11.058Z,16.00
2019-01-16T13:37:18.446Z,13.00
2019-01-16T13:39:32.409Z,16.00
2019-01-16T13:43:58.217Z,13.00
2019-01-16T13:46:12.183Z,9.00
2019-01-16T13:50:08.660Z,9.00
2019-01-16T13:54:04.147Z,10.00
2019-01-16T13:56:11.818Z,9.00
2019-01-16T13:58:26.193Z,11.00
2019-01-16T14:00:33.557Z,11.00
2019-01-16T14:02:40.963Z,11.00
2019-01-16T14:04:56.559Z,11.00
2019-01-16T14:08:52.046Z,11.00
2019-01-16T14:11:10.115Z,13.00
2019-01-16T14:13:18.699Z,14.00
2019-01-16T14:15:33.532Z,15.00
2019-01-16T14:17:41.262Z,16.00
2019-01-16T14:19:50.696Z,17.00
2019-01-16T14:22:06.298Z,18.00
2019-01-16T14:24:14.889Z,19.00
2019-01-16T14:26:28.423Z,19.00
2019-01-16T14:28:43.202Z,20.00
2019-01-16T14:30:50.576Z,19.00
2019-01-16T14:33:04.123Z,18.00
2019-01-16T14:35:11.485Z,17.00
2019-01-16T14:37:18.875Z,17.00
2019-01-16T14:39:33.246Z,17.00
2019-01-16T14:41:46.807Z,17.00
2019-01-16T14:43:54.140Z,17.00
2019-01-16T14:46:10.158Z,16.00
2019-01-16T14:48:17.518Z,15.00
2019-01-16T14:50:24.912Z,14.00
2019-01-16T14:52:39.278Z,13.00
2019-01-16T14:54:46.646Z,13.00
2019-01-16T14:56:55.262Z,12.00
2019-01-16T14:59:09.228Z,11.00
2019-01-16T15:01:16.587Z,10.00
2019-01-16T15:03:23.980Z,9.00
2019-01-16T15:05:38.353Z,8.00
2019-01-16T15:07:45.717Z,8.00
2019-01-16T15:09:53.103Z,8.00
2019-01-16T15:12:07.482Z,8.00
2019-01-16T15:14:14.839Z,8.00
2019-01-16T15:16:22.226Z,7.00
2019-01-16T15:18:36.188Z,7.00
2019-01-16T15:20:43.960Z,6.00
2019-01-16T15:22:52.578Z,6.00
2019-01-16T15:25:07.360Z,5.00
2019-01-16T15:27:14.726Z,5.00
2019-01-16T15:29:22.114Z,5.00
2019-01-16T15:31:36.491Z,4.00
2019-01-16T15:33:45.902Z,4.00
2019-01-16T15:35:58.215Z,3.00
2019-01-16T15:38:08.477Z,3.00
2019-01-16T15:40:15.846Z,3.00
2019-01-16T15:42:23.229Z,3.00
2019-01-16T15:44:38.422Z,2.00
2019-01-16T15:46:47.839Z,2.00
2019-01-16T15:48:55.222Z,2.00
2019-01-16T15:51:09.189Z,1.00
2019-01-16T15:53:18.598Z,1.00
2019-01-16T15:55:33.385Z,1.00
2019-01-16T15:57:41.974Z,1.00
2019-01-16T15:59:49.360Z,0.00
2019-01-16T16:02:03.331Z,0.00
2019-01-16T16:04:10.696Z,0.00
2019-01-16T16:06:18.078Z,0.00
2019-01-16T16:08:32.449Z,0.00
2019-01-16T16:10:43.097Z,0.00
2019-01-16T16:12:50.479Z,0.00
2019-01-16T16:15:04.444Z,0.00
2019-01-16T16:17:11.810Z,0.00
2019-01-16T16:19:19.205Z,0.00
2019-01-16T16:21:33.159Z,0.00
2019-01-16T16:23:41.758Z,0.00
2019-01-16T16:25:49.147Z,0.00
2019-01-16T16:28:04.331Z,0.00
2019-01-16T16:30:12.928Z,0.00
2019-01-16T16:32:21.546Z,0.00
2019-01-16T16:34:35.507Z,0.00
2019-01-16T16:36:46.150Z,0.00
2019-01-16T16:38:53.537Z,0.00
2019-01-16T16:41:07.496Z,0.00
2019-01-16T16:43:14.903Z,0.00
2019-01-16T16:45:22.258Z,0.00
2019-01-16T16:47:36.218Z,0.00
2019-01-16T16:49:44.805Z,0.00
2019-01-16T16:51:52.194Z,0.00
2019-01-16T16:54:07.387Z,0.00
2019-01-16T16:56:14.754Z,0.00
2019-01-16T16:58:24.185Z,0.00
2019-01-16T17:00:38.555Z,0.00
2019-01-16T17:02:49.204Z,0.00
2019-01-16T17:04:56.586Z,0.00
2019-01-16T17:07:12.192Z,0.00
2019-01-16T17:09:19.556Z,0.00
2019-01-16T17:11:28.198Z,0.00
2019-01-16T17:13:48.040Z,0.00
2019-01-16T17:15:51.141Z,0.00
2019-01-16T17:17:58.523Z,0.00
2019-01-16T17:20:12.486Z,0.00
2019-01-16T17:22:21.079Z,0.00
2019-01-16T17:24:28.467Z,0.00
2019-01-16T17:26:42.430Z,0.00
2019-01-16T17:28:49.797Z,0.00
2019-01-16T17:30:57.179Z,0.00
2019-01-16T17:33:11.558Z,0.00
2019-01-16T17:35:20.402Z,0.00
2019-01-16T17:37:27.536Z,0.00
2019-01-16T17:41:22.016Z,0.00
2019-01-16T17:43:29.626Z,0.00
2019-01-16T17:45:43.180Z,0.00
2019-01-16T17:47:51.772Z,0.00
2019-01-16T17:50:00.388Z,0.00
2019-01-16T17:52:15.172Z,0.00
2019-01-16T17:54:23.770Z,0.00
2019-01-16T17:56:31.158Z,0.00
2019-01-16T17:58:45.117Z,0.00
2019-01-16T18:00:53.719Z,0.00
2019-01-16T18:03:02.327Z,0.00
2019-01-16T18:05:18.340Z,0.00
2019-01-16T18:07:27.750Z,0.00
2019-01-16T18:09:35.138Z,0.00
2019-01-16T18:11:49.099Z,0.00
2019-01-16T18:13:56.466Z,0.00
2019-01-16T18:16:03.852Z,0.00
2019-01-16T18:18:20.271Z,0.00
2019-01-16T18:20:27.646Z,0.00
2019-01-16T18:22:35.024Z,0.00
2019-01-16T18:24:49.398Z,0.00
2019-01-16T18:26:56.764Z,0.00
2019-01-16T18:29:05.383Z,0.00
2019-01-16T18:31:19.342Z,0.00
2019-01-16T18:33:26.707Z,0.00
2019-01-16T18:35:35.327Z,0.00
2019-01-16T18:37:49.288Z,0.00
2019-01-16T18:39:57.061Z,0.00
2019-01-16T18:42:04.084Z,0.00
2019-01-16T18:44:18.410Z,0.00
2019-01-16T18:46:25.778Z,0.00
2019-01-16T18:48:33.163Z,0.00
2019-01-16T18:50:47.132Z,0.00
2019-01-16T18:52:55.800Z,0.00
2019-01-16T18:55:03.523Z,0.00
2019-01-16T18:57:18.707Z,0.00
2019-01-16T18:59:26.087Z,0.00
2019-01-16T19:01:34.692Z,0.00
2019-01-16T19:03:48.248Z,0.00
2019-01-16T19:05:56.837Z,0.00
2019-01-16T19:08:11.228Z,0.00
2019-01-16T19:10:20.625Z,0.00
2019-01-16T19:12:29.247Z,0.00
2019-01-16T19:14:43.204Z,0.00
2019-01-16T19:16:50.575Z,0.00
2019-01-16T19:18:57.969Z,0.00
2019-01-16T19:21:12.328Z,0.00
2019-01-16T19:23:19.695Z,0.00
2019-01-16T19:25:27.101Z,0.00
2019-01-16T19:27:41.462Z,0.00
2019-01-16T19:29:50.052Z,0.00
2019-01-16T19:31:58.670Z,0.00
2019-01-16T19:34:12.639Z,0.00
2019-01-16T19:36:21.228Z,0.00
2019-01-16T19:38:28.614Z,0.00
2019-01-16T19:40:42.160Z,0.00
2019-01-16T19:42:49.533Z,0.00
2019-01-16T19:44:56.915Z,0.00
2019-01-16T19:47:12.518Z,0.00
2019-01-16T19:49:21.938Z,0.00
2019-01-16T19:51:29.320Z,0.00
2019-01-16T19:53:43.279Z,0.00
2019-01-16T19:55:50.646Z,0.00
2019-01-16T19:57:58.034Z,0.00
2019-01-16T20:00:12.408Z,0.00
2019-01-16T20:02:20.999Z,0.00
2019-01-16T20:04:34.341Z,0.00
2019-01-16T20:06:48.520Z,0.00
2019-01-16T20:08:57.913Z,0.00
2019-01-16T20:11:05.294Z,0.00
2019-01-16T20:13:20.486Z,0.00
2019-01-16T20:15:27.850Z,0.00
2019-01-16T20:17:35.235Z,0.00
2019-01-16T20:19:50.446Z,0.00
2019-01-16T20:22:01.072Z,0.00
2019-01-16T20:26:27.333Z,0.00
2019-01-16T20:28:34.703Z,0.00
2019-01-16T20:30:42.088Z,0.00
2019-01-16T20:32:56.461Z,0.00
2019-01-16T20:35:09.638Z,0.00
2019-01-16T20:37:11.214Z,0.00
2019-01-16T20:39:26.409Z,0.00
2019-01-16T20:41:33.769Z,0.00
2019-01-16T20:43:41.156Z,0.00
2019-01-16T20:45:55.527Z,0.00
2019-01-16T20:48:02.896Z,0.00
2019-01-16T20:50:12.328Z,0.00
2019-01-16T20:52:27.521Z,0.00
2019-01-16T20:54:34.887Z,0.00
2019-01-16T20:56:43.561Z,0.00
2019-01-16T20:59:01.153Z,0.00
2019-01-16T21:01:10.568Z,0.00
2019-01-16T21:03:17.987Z,0.00
2019-01-16T21:05:32.328Z,0.00
2019-01-16T21:07:39.692Z,0.00
2019-01-16T21:09:48.314Z,0.00
2019-01-16T21:12:03.500Z,0.00
2019-01-16T21:16:22.353Z,0.00
2019-01-16T21:18:37.540Z,0.00
2019-01-16T21:20:52.278Z,0.00
2019-01-16T21:22:59.692Z,0.00
2019-01-16T21:25:16.388Z,0.00
2019-01-16T21:27:28.794Z,0.00
2019-01-16T21:29:44.357Z,0.00
2019-01-16T21:31:58.328Z,0.00
2019-01-16T21:34:07.733Z,0.00
2019-01-16T21:36:15.122Z,0.00
2019-01-16T21:38:31.537Z,0.00
2019-01-16T21:40:38.900Z,0.00
2019-01-16T21:42:46.290Z,0.00
2019-01-16T21:45:01.479Z,0.00
2019-01-16T21:47:10.075Z,0.00
2019-01-16T21:49:18.691Z,0.00
2019-01-16T21:51:32.244Z,0.00
2019-01-16T21:53:40.842Z,0.00
2019-01-16T21:55:55.198Z,0.00
2019-01-16T21:58:10.388Z,0.00
2019-01-16T22:00:23.887Z,0.00
2019-01-16T22:02:31.274Z,0.00
2019-01-16T22:04:46.470Z,0.00
2019-01-16T22:06:55.881Z,0.00
2019-01-16T22:09:04.498Z,0.00
2019-01-16T22:13:00.971Z,0.00
2019-01-16T22:15:08.636Z,0.00
2019-01-16T22:19:03.113Z,0.00
2019-01-16T22:21:10.723Z,0.00
2019-01-16T22:23:28.376Z,0.00
2019-01-16T22:25:35.772Z,0.00
2019-01-16T22:27:44.358Z,0.00
2019-01-16T22:29:59.550Z,0.00
2019-01-16T22:32:06.913Z,0.00
2019-01-16T22:34:23.315Z,0.00
2019-01-16T22:36:37.275Z,0.00
2019-01-16T22:38:46.689Z,0.00
2019-01-16T22:41:01.038Z,0.00
2019-01-16T22:44:57.544Z,0.00
2019-01-16T22:47:09.274Z,0.00
2019-01-16T22:49:18.710Z,0.00
2019-01-16T22:51:32.670Z,0.00
2019-01-16T22:53:43.425Z,0.00
2019-01-16T22:55:54.386Z,0.00
2019-01-16T22:58:11.472Z,0.00
2019-01-16T23:00:18.179Z,0.00
2019-01-16T23:02:26.789Z,0.00
2019-01-16T23:04:41.579Z,0.00
2019-01-16T23:06:50.165Z,0.00
2019-01-16T23:09:03.698Z,0.00
2019-01-16T23:11:17.658Z,0.00
2019-01-16T23:13:28.302Z,0.00
2019-01-16T23:15:35.702Z,0.00
2019-01-16T23:17:49.658Z,0.00
2019-01-16T23:20:00.301Z,0.00
2019-01-16T23:22:14.667Z,0.00
2019-01-16T23:24:23.260Z,0.00
2019-01-16T23:26:30.654Z,0.00
2019-01-16T23:28:44.608Z,0.00
2019-01-16T23:30:58.960Z,0.00
2019-01-16T23:35:16.987Z,0.00
2019-01-16T23:37:32.186Z,0.00
2019-01-16T23:39:40.780Z,0.00
2019-01-16T23:41:49.398Z,0.00
2019-01-16T23:44:03.776Z,0.00
2019-01-16T23:46:19.774Z,0.00
2019-01-16T23:48:28.349Z,0.00
2019-01-16T23:52:52.978Z,0.00
2019-01-16T23:55:00.344Z,0.00
2019-01-16T23:57:07.729Z,0.00
2019-01-16T23:59:21.697Z,0.00
